Avon, Indiana
Current Conditions -  °F | °C
As of 3:53 AM on Saturday 25 Oct 2014 (Local Time) from KEYE Reporting Station
Scattered Clouds Scattered Clouds  
Wind Chill: 52°   Ceiling: Unl
Heat Index: 52°   Visibility: 7mi
Dew Point: 49°   Wind: 3mph
Humidity: 89%   Direction: 170°S
Pressure: 29.97"   Gusts: NA
Location:  39.76°N, 86.4°W
Report Text: KEYE 250753Z AUTO 17003KT 7SM SCT090 11/09 A2997 RMK AO2 SLP147 T01110094
Loading
Personal Weather Stations






























Interactive Weather Map New forecast layout! Learn more

10-Day Weather Forecast

Advertisements
Track Severe Weather on mobile